Seminole, Florida
Current Conditions -  °F | °C
As of 4:53 AM on Saturday 22 Nov 2014 (Local Time) from KPIE Reporting Station
Light Rain Light Rain  
Wind Chill: 63°   Ceiling: 6000
Heat Index: 63°   Visibility: 6mi
Dew Point: 60°   Wind: 8mph
Humidity: 90%   Direction: 50°NE
Pressure: 30.2"   Gusts: NA
Location:  27.84°N, 82.8°W
Report Text: KPIE 220953Z AUTO 05007KT 6SM -RA BR BKN060 OVC070 17/16 A3020 RMK AO2 RAB25 SLP224 P0000 T01720156
Loading
Personal Weather Stations






























Interactive Weather Map New forecast layout! Learn more

10-Day Weather Forecast

Advertisements
Track Severe Weather on mobile